DAL2856 KDTW-KATL
Flight info
| Callsign | DAL2856 |
|---|---|
| Flight time | 1h 38m |
| Altitude | 38000 |
| Route | BARII3 SINKR IIU Q139 HITMN/N0462F370 NEWBB IHAVE MTHEW CHPPR1 |
| Aircraft | B738/M-SDE2E3FGHIRWXY/LB1 |
Departure
| Time | 2026-05-07 16:11 |
|---|---|
| Airport | Detroit Metropolitan Wayne County Airport (KDTW) |
Arrival
| Time | 2026-05-07 17:49 |
|---|---|
| Airport | Hartsfield Jackson Atlanta International Airport (KATL) |
| Time | Latitude | Longitude | Altitude | Speed | Heading |
|---|---|---|---|---|---|
| 2026-05-07 15:44 | 42.20364 | -83.36217 | 642 ft | 0 kts | 119° |
| 2026-05-07 15:58 | 42.20365 | -83.36219 | 642 ft | 1 kts | 120° |
| 2026-05-07 15:58 | 42.20373 | -83.36237 | 642 ft | 2 kts | 126° |
| 2026-05-07 15:58 | 42.20383 | -83.36252 | 642 ft | 2 kts | 137° |
| 2026-05-07 15:59 | 42.20394 | -83.36264 | 642 ft | 2 kts | 148° |
| 2026-05-07 15:59 | 42.20408 | -83.36274 | 642 ft | 2 kts | 159° |
| 2026-05-07 15:59 | 42.20422 | -83.36279 | 642 ft | 2 kts | 170° |
| 2026-05-07 15:59 | 42.20432 | -83.36281 | 642 ft | 0 kts | 177° |
| 2026-05-07 16:00 | 42.20437 | -83.36282 | 642 ft | 0 kts | 179° |
| 2026-05-07 16:02 | 42.20426 | -83.36281 | 642 ft | 2 kts | 179° |
| 2026-05-07 16:02 | 42.20402 | -83.36297 | 641 ft | 11 kts | 216° |
| 2026-05-07 16:02 | 42.20318 | -83.36363 | 639 ft | 14 kts | 211° |
| 2026-05-07 16:03 | 42.20232 | -83.36406 | 639 ft | 11 kts | 187° |
| 2026-05-07 16:03 | 42.20197 | -83.36356 | 639 ft | 7 kts | 105° |
| 2026-05-07 16:03 | 42.20184 | -83.36290 | 639 ft | 7 kts | 105° |
| 2026-05-07 16:03 | 42.20168 | -83.36191 | 639 ft | 15 kts | 101° |
| 2026-05-07 16:04 | 42.20160 | -83.36007 | 639 ft | 24 kts | 90° |
| 2026-05-07 16:04 | 42.20157 | -83.35737 | 639 ft | 30 kts | 92° |
| 2026-05-07 16:04 | 42.20169 | -83.35456 | 639 ft | 29 kts | 86° |
| 2026-05-07 16:04 | 42.20175 | -83.35181 | 636 ft | 29 kts | 90° |
| 2026-05-07 16:05 | 42.20237 | -83.34938 | 636 ft | 27 kts | 31° |
| 2026-05-07 16:05 | 42.20406 | -83.34816 | 636 ft | 26 kts | 30° |
| 2026-05-07 16:05 | 42.20566 | -83.34695 | 636 ft | 26 kts | 28° |
| 2026-05-07 16:05 | 42.20726 | -83.34583 | 636 ft | 25 kts | 28° |
| 2026-05-07 16:06 | 42.20878 | -83.34467 | 636 ft | 24 kts | 30° |
| 2026-05-07 16:06 | 42.21028 | -83.34366 | 636 ft | 23 kts | 27° |
| 2026-05-07 16:06 | 42.21169 | -83.34260 | 636 ft | 22 kts | 29° |
| 2026-05-07 16:06 | 42.21304 | -83.34158 | 636 ft | 21 kts | 37° |
| 2026-05-07 16:07 | 42.21424 | -83.34054 | 636 ft | 19 kts | 28° |
| 2026-05-07 16:07 | 42.21543 | -83.33970 | 636 ft | 18 kts | 27° |
| 2026-05-07 16:07 | 42.21658 | -83.33890 | 636 ft | 18 kts | 28° |
| 2026-05-07 16:07 | 42.21767 | -83.33813 | 636 ft | 17 kts | 27° |
| 2026-05-07 16:08 | 42.21870 | -83.33739 | 636 ft | 16 kts | 32° |
| 2026-05-07 16:08 | 42.21965 | -83.33664 | 636 ft | 15 kts | 28° |
| 2026-05-07 16:08 | 42.22019 | -83.33568 | 635 ft | 13 kts | 105° |
| 2026-05-07 16:08 | 42.21973 | -83.33453 | 632 ft | 12 kts | 130° |
| 2026-05-07 16:09 | 42.21909 | -83.33456 | 632 ft | 0 kts | 211° |
| 2026-05-07 16:09 | 42.21905 | -83.33459 | 632 ft | 0 kts | 211° |
| 2026-05-07 16:09 | 42.21903 | -83.33460 | 632 ft | 1 kts | 211° |
| 2026-05-07 16:09 | 42.21892 | -83.33469 | 632 ft | 2 kts | 211° |
| 2026-05-07 16:10 | 42.21786 | -83.33544 | 633 ft | 41 kts | 210° |
| 2026-05-07 16:10 | 42.21327 | -83.33883 | 636 ft | 107 kts | 209° |
| 2026-05-07 16:10 | 42.20508 | -83.34489 | 637 ft | 159 kts | 213° |
| 2026-05-07 16:10 | 42.19480 | -83.35283 | 981 ft | 175 kts | 210° |
| 2026-05-07 16:11 | 42.18495 | -83.36112 | 1756 ft | 171 kts | 218° |
| 2026-05-07 16:11 | 42.17398 | -83.36912 | 2218 ft | 191 kts | 208° |
| 2026-05-07 16:11 | 42.16078 | -83.37521 | 2809 ft | 209 kts | 201° |
| 2026-05-07 16:11 | 42.14616 | -83.38066 | 3372 ft | 230 kts | 199° |
| 2026-05-07 16:12 | 42.13038 | -83.38654 | 4062 ft | 244 kts | 199° |
| 2026-05-07 16:12 | 42.11361 | -83.39289 | 4766 ft | 259 kts | 199° |
| 2026-05-07 16:12 | 42.09595 | -83.39961 | 5555 ft | 269 kts | 200° |
| 2026-05-07 16:12 | 42.07796 | -83.40643 | 6527 ft | 272 kts | 199° |
| 2026-05-07 16:13 | 42.05933 | -83.41326 | 6918 ft | 283 kts | 198° |
| 2026-05-07 16:13 | 42.04032 | -83.41956 | 6986 ft | 279 kts | 197° |
| 2026-05-07 16:13 | 42.02148 | -83.42546 | 6993 ft | 274 kts | 197° |
| 2026-05-07 16:13 | 42.00291 | -83.43139 | 6996 ft | 273 kts | 198° |
| 2026-05-07 16:14 | 41.98448 | -83.43745 | 6999 ft | 275 kts | 198° |
| 2026-05-07 16:14 | 41.96578 | -83.44367 | 6998 ft | 273 kts | 199° |
| 2026-05-07 16:14 | 41.94752 | -83.45179 | 7083 ft | 283 kts | 206° |
| 2026-05-07 16:14 | 41.92977 | -83.46187 | 8191 ft | 278 kts | 208° |
| 2026-05-07 16:15 | 41.91239 | -83.47210 | 9330 ft | 274 kts | 209° |
| 2026-05-07 16:15 | 41.89511 | -83.48219 | 10258 ft | 277 kts | 209° |
| 2026-05-07 16:15 | 41.87686 | -83.49270 | 10882 ft | 290 kts | 208° |
| 2026-05-07 16:15 | 41.85800 | -83.50345 | 11545 ft | 302 kts | 208° |
| 2026-05-07 16:16 | 41.83840 | -83.51456 | 12300 ft | 309 kts | 208° |
| 2026-05-07 16:16 | 41.81875 | -83.52563 | 13205 ft | 310 kts | 208° |
| 2026-05-07 16:16 | 41.79902 | -83.53674 | 14131 ft | 311 kts | 209° |
| 2026-05-07 16:16 | 41.77925 | -83.54791 | 14959 ft | 314 kts | 209° |
| 2026-05-07 16:17 | 41.75889 | -83.55946 | 15745 ft | 318 kts | 209° |
| 2026-05-07 16:17 | 41.73871 | -83.57088 | 16605 ft | 319 kts | 209° |
| 2026-05-07 16:17 | 41.71827 | -83.58243 | 17353 ft | 323 kts | 209° |
| 2026-05-07 16:17 | 41.69747 | -83.59439 | 18122 ft | 325 kts | 211° |
| 2026-05-07 16:18 | 41.67722 | -83.60719 | 18880 ft | 326 kts | 213° |
| 2026-05-07 16:18 | 41.65702 | -83.62079 | 19612 ft | 327 kts | 214° |
| 2026-05-07 16:18 | 41.63671 | -83.63457 | 20350 ft | 328 kts | 214° |
| 2026-05-07 16:18 | 41.61660 | -83.64806 | 21057 ft | 329 kts | 214° |
| 2026-05-07 16:19 | 41.59576 | -83.66196 | 21660 ft | 334 kts | 214° |
| 2026-05-07 16:19 | 41.57510 | -83.67565 | 22314 ft | 336 kts | 214° |
| 2026-05-07 16:19 | 41.55435 | -83.68935 | 22994 ft | 337 kts | 214° |
| 2026-05-07 16:19 | 41.53333 | -83.70317 | 23604 ft | 339 kts | 215° |
| 2026-05-07 16:20 | 41.51208 | -83.71715 | 24211 ft | 340 kts | 215° |
| 2026-05-07 16:20 | 41.49080 | -83.73114 | 24789 ft | 342 kts | 215° |
| 2026-05-07 16:20 | 41.46945 | -83.74520 | 25349 ft | 344 kts | 215° |
| 2026-05-07 16:20 | 41.44811 | -83.75924 | 25875 ft | 346 kts | 216° |
| 2026-05-07 16:21 | 41.42651 | -83.77340 | 26378 ft | 348 kts | 216° |
| 2026-05-07 16:21 | 41.40494 | -83.78751 | 26942 ft | 348 kts | 216° |
| 2026-05-07 16:21 | 41.38322 | -83.80170 | 27461 ft | 349 kts | 216° |
| 2026-05-07 16:21 | 41.36130 | -83.81602 | 27916 ft | 351 kts | 216° |
| 2026-05-07 16:22 | 41.33938 | -83.83033 | 28344 ft | 354 kts | 216° |
| 2026-05-07 16:22 | 41.31704 | -83.84492 | 28820 ft | 355 kts | 216° |
| 2026-05-07 16:22 | 41.29506 | -83.85922 | 29175 ft | 360 kts | 217° |
| 2026-05-07 16:22 | 41.27235 | -83.87405 | 29655 ft | 360 kts | 217° |
| 2026-05-07 16:23 | 41.24998 | -83.88857 | 30118 ft | 361 kts | 217° |
| 2026-05-07 16:23 | 41.22742 | -83.90327 | 30471 ft | 364 kts | 217° |
| 2026-05-07 16:23 | 41.20461 | -83.91814 | 30775 ft | 368 kts | 217° |
| 2026-05-07 16:23 | 41.18146 | -83.93321 | 31150 ft | 369 kts | 217° |
| 2026-05-07 16:24 | 41.15859 | -83.94806 | 31460 ft | 372 kts | 217° |
| 2026-05-07 16:24 | 41.13500 | -83.96343 | 31697 ft | 377 kts | 217° |
| 2026-05-07 16:24 | 41.11161 | -83.97860 | 32038 ft | 378 kts | 216° |
| 2026-05-07 16:24 | 41.08770 | -83.99408 | 32230 ft | 383 kts | 216° |
| 2026-05-07 16:25 | 41.06374 | -84.00956 | 32592 ft | 383 kts | 216° |
| 2026-05-07 16:25 | 41.03978 | -84.02505 | 32829 ft | 386 kts | 216° |
| 2026-05-07 16:25 | 41.01555 | -84.04069 | 33109 ft | 388 kts | 216° |
| 2026-05-07 16:25 | 40.99141 | -84.05631 | 33332 ft | 391 kts | 216° |
| 2026-05-07 16:26 | 40.96690 | -84.07212 | 33619 ft | 392 kts | 216° |
| 2026-05-07 16:26 | 40.94230 | -84.08803 | 33811 ft | 396 kts | 216° |
| 2026-05-07 16:26 | 40.91738 | -84.10408 | 34093 ft | 397 kts | 216° |
| 2026-05-07 16:26 | 40.90065 | -84.11485 | 34222 ft | 400 kts | 216° |
| 2026-05-07 16:27 | 40.86702 | -84.13617 | 34670 ft | 401 kts | 215° |
| 2026-05-07 16:27 | 40.84194 | -84.15138 | 35082 ft | 399 kts | 214° |
| 2026-05-07 16:27 | 40.81641 | -84.16663 | 35353 ft | 400 kts | 214° |
| 2026-05-07 16:27 | 40.79112 | -84.18170 | 35668 ft | 399 kts | 214° |
| 2026-05-07 16:28 | 40.76594 | -84.19672 | 35943 ft | 400 kts | 214° |
| 2026-05-07 16:28 | 40.74080 | -84.21174 | 36153 ft | 402 kts | 214° |
| 2026-05-07 16:28 | 40.71517 | -84.22707 | 36403 ft | 402 kts | 215° |
| 2026-05-07 16:28 | 40.68985 | -84.24223 | 36669 ft | 402 kts | 215° |
| 2026-05-07 16:29 | 40.66426 | -84.25755 | 36895 ft | 403 kts | 215° |
| 2026-05-07 16:29 | 40.63870 | -84.27288 | 37105 ft | 404 kts | 214° |
| 2026-05-07 16:29 | 40.61304 | -84.28825 | 37372 ft | 404 kts | 215° |
| 2026-05-07 16:29 | 40.58757 | -84.30351 | 37590 ft | 404 kts | 214° |
| 2026-05-07 16:30 | 40.56191 | -84.31885 | 37823 ft | 404 kts | 214° |
| 2026-05-07 16:30 | 40.53637 | -84.33411 | 37990 ft | 405 kts | 214° |
| 2026-05-07 16:30 | 40.51046 | -84.34962 | 38013 ft | 407 kts | 215° |
| 2026-05-07 16:31 | 40.45879 | -84.38036 | 38023 ft | 406 kts | 215° |
| 2026-05-07 16:31 | 40.40677 | -84.40958 | 38022 ft | 409 kts | 213° |
| 2026-05-07 16:32 | 40.35393 | -84.43697 | 38023 ft | 408 kts | 212° |
| 2026-05-07 16:32 | 40.30104 | -84.46421 | 38026 ft | 409 kts | 213° |
| 2026-05-07 16:33 | 40.24800 | -84.49171 | 38024 ft | 406 kts | 213° |
| 2026-05-07 16:33 | 40.19531 | -84.51918 | 38029 ft | 408 kts | 213° |
| 2026-05-07 16:34 | 40.14253 | -84.54672 | 38031 ft | 410 kts | 213° |
| 2026-05-07 16:34 | 40.08947 | -84.57436 | 38033 ft | 409 kts | 213° |
| 2026-05-07 16:35 | 40.03686 | -84.60166 | 38026 ft | 407 kts | 213° |
| 2026-05-07 16:35 | 39.98371 | -84.62935 | 38024 ft | 411 kts | 213° |
| 2026-05-07 16:36 | 39.93104 | -84.65662 | 38031 ft | 408 kts | 213° |
| 2026-05-07 16:36 | 39.87838 | -84.68384 | 38033 ft | 408 kts | 213° |
| 2026-05-07 16:37 | 39.82556 | -84.71112 | 38032 ft | 407 kts | 213° |
| 2026-05-07 16:37 | 39.77294 | -84.73819 | 38033 ft | 406 kts | 213° |
| 2026-05-07 16:38 | 39.72069 | -84.76518 | 38034 ft | 408 kts | 213° |
| 2026-05-07 16:38 | 39.66802 | -84.79230 | 38043 ft | 407 kts | 213° |
| 2026-05-07 16:39 | 39.61547 | -84.81924 | 38042 ft | 406 kts | 213° |
| 2026-05-07 16:39 | 39.56323 | -84.84602 | 38043 ft | 404 kts | 213° |
| 2026-05-07 16:40 | 39.51124 | -84.87260 | 38041 ft | 404 kts | 214° |
| 2026-05-07 16:40 | 39.45857 | -84.89958 | 38039 ft | 405 kts | 214° |
| 2026-05-07 16:41 | 39.40647 | -84.92608 | 38039 ft | 401 kts | 214° |
| 2026-05-07 16:41 | 39.35456 | -84.95252 | 38030 ft | 405 kts | 214° |
| 2026-05-07 16:42 | 39.30199 | -84.97933 | 38029 ft | 404 kts | 214° |
| 2026-05-07 16:42 | 39.24971 | -85.00582 | 38032 ft | 404 kts | 214° |
| 2026-05-07 16:43 | 39.19753 | -85.03230 | 38041 ft | 404 kts | 213° |
| 2026-05-07 16:43 | 39.14550 | -85.05853 | 38031 ft | 399 kts | 214° |
| 2026-05-07 16:44 | 39.09378 | -85.08462 | 38035 ft | 403 kts | 214° |
| 2026-05-07 16:44 | 39.04152 | -85.11104 | 38037 ft | 403 kts | 214° |
| 2026-05-07 16:45 | 38.98977 | -85.13695 | 38035 ft | 400 kts | 214° |
| 2026-05-07 16:45 | 38.93784 | -85.16308 | 38042 ft | 399 kts | 214° |
| 2026-05-07 16:46 | 38.88609 | -85.18931 | 38036 ft | 400 kts | 214° |
| 2026-05-07 16:46 | 38.83420 | -85.21536 | 38039 ft | 400 kts | 214° |
| 2026-05-07 16:47 | 38.78256 | -85.24116 | 38052 ft | 400 kts | 214° |
| 2026-05-07 16:47 | 38.73100 | -85.26688 | 38049 ft | 397 kts | 214° |
| 2026-05-07 16:48 | 38.67973 | -85.29237 | 38053 ft | 397 kts | 214° |
| 2026-05-07 16:48 | 38.62817 | -85.31812 | 38048 ft | 400 kts | 214° |
| 2026-05-07 16:49 | 38.57688 | -85.34354 | 38051 ft | 395 kts | 215° |
| 2026-05-07 16:49 | 38.52539 | -85.36920 | 38047 ft | 396 kts | 215° |
| 2026-05-07 16:50 | 38.47417 | -85.39464 | 38054 ft | 394 kts | 214° |
| 2026-05-07 16:50 | 38.42283 | -85.41991 | 38051 ft | 395 kts | 214° |
| 2026-05-07 16:51 | 38.37170 | -85.44516 | 38062 ft | 394 kts | 215° |
| 2026-05-07 16:51 | 38.32058 | -85.47045 | 38058 ft | 395 kts | 215° |
| 2026-05-07 16:52 | 38.26956 | -85.49556 | 38063 ft | 395 kts | 215° |
| 2026-05-07 16:52 | 38.21855 | -85.52060 | 38063 ft | 392 kts | 214° |
| 2026-05-07 16:53 | 38.16749 | -85.54575 | 38062 ft | 394 kts | 215° |
| 2026-05-07 16:53 | 38.11644 | -85.57076 | 38064 ft | 394 kts | 215° |
| 2026-05-07 16:54 | 38.06628 | -85.59705 | 38065 ft | 390 kts | 218° |
| 2026-05-07 16:54 | 38.01732 | -85.62580 | 38064 ft | 386 kts | 218° |
| 2026-05-07 16:55 | 37.96904 | -85.65429 | 38066 ft | 385 kts | 218° |
| 2026-05-07 16:55 | 37.92012 | -85.68290 | 38065 ft | 388 kts | 218° |
| 2026-05-07 16:56 | 37.87124 | -85.71109 | 38060 ft | 385 kts | 218° |
| 2026-05-07 16:56 | 37.79817 | -85.75316 | 38060 ft | 383 kts | 218° |
| 2026-05-07 16:57 | 37.74950 | -85.78097 | 38053 ft | 384 kts | 218° |
| 2026-05-07 16:57 | 37.70101 | -85.80878 | 38063 ft | 385 kts | 218° |
| 2026-05-07 16:58 | 37.65234 | -85.83666 | 38057 ft | 384 kts | 218° |
| 2026-05-07 16:58 | 37.60394 | -85.86433 | 38061 ft | 380 kts | 218° |
| 2026-05-07 16:59 | 37.55563 | -85.89185 | 38055 ft | 378 kts | 218° |
| 2026-05-07 16:59 | 37.50762 | -85.91930 | 38060 ft | 382 kts | 219° |
| 2026-05-07 17:00 | 37.45938 | -85.94684 | 38054 ft | 380 kts | 218° |
| 2026-05-07 17:00 | 37.41103 | -85.97426 | 38057 ft | 380 kts | 219° |
| 2026-05-07 17:01 | 37.36324 | -86.00129 | 38052 ft | 379 kts | 219° |
| 2026-05-07 17:01 | 37.31483 | -86.02865 | 38054 ft | 378 kts | 219° |
| 2026-05-07 17:02 | 37.26723 | -86.05562 | 38050 ft | 374 kts | 219° |
| 2026-05-07 17:02 | 37.21959 | -86.08267 | 38059 ft | 378 kts | 219° |
| 2026-05-07 17:03 | 37.17171 | -86.10965 | 38049 ft | 374 kts | 219° |
| 2026-05-07 17:03 | 37.12441 | -86.13628 | 38064 ft | 375 kts | 220° |
| 2026-05-07 17:04 | 37.07639 | -86.16341 | 38059 ft | 378 kts | 219° |
| 2026-05-07 17:04 | 37.02880 | -86.19013 | 38059 ft | 376 kts | 219° |
| 2026-05-07 17:05 | 36.98105 | -86.21683 | 38063 ft | 373 kts | 219° |
| 2026-05-07 17:05 | 36.93382 | -86.24334 | 38060 ft | 373 kts | 220° |
| 2026-05-07 17:06 | 36.88660 | -86.26971 | 38053 ft | 370 kts | 219° |
| 2026-05-07 17:06 | 36.83968 | -86.29588 | 38056 ft | 372 kts | 219° |
| 2026-05-07 17:07 | 36.79203 | -86.32262 | 38053 ft | 375 kts | 219° |
| 2026-05-07 17:07 | 36.74475 | -86.34891 | 38049 ft | 374 kts | 219° |
| 2026-05-07 17:08 | 36.69719 | -86.37537 | 38048 ft | 374 kts | 219° |
| 2026-05-07 17:08 | 36.64960 | -86.40176 | 38049 ft | 374 kts | 220° |
| 2026-05-07 17:09 | 36.60234 | -86.42807 | 38047 ft | 374 kts | 219° |
| 2026-05-07 17:09 | 36.55477 | -86.45435 | 38051 ft | 372 kts | 219° |
| 2026-05-07 17:10 | 36.50767 | -86.48047 | 38059 ft | 373 kts | 219° |
| 2026-05-07 17:10 | 36.46012 | -86.50667 | 38060 ft | 373 kts | 220° |
| 2026-05-07 17:11 | 36.41279 | -86.53284 | 38060 ft | 373 kts | 219° |
| 2026-05-07 17:11 | 36.36527 | -86.55898 | 38068 ft | 374 kts | 220° |
| 2026-05-07 17:12 | 36.31773 | -86.58518 | 38068 ft | 373 kts | 220° |
| 2026-05-07 17:12 | 36.27066 | -86.61104 | 38068 ft | 370 kts | 220° |
| 2026-05-07 17:13 | 36.22332 | -86.63697 | 38068 ft | 375 kts | 219° |
| 2026-05-07 17:13 | 36.17191 | -86.65617 | 38071 ft | 408 kts | 204° |
| 2026-05-07 17:14 | 36.14280 | -86.65740 | 38067 ft | 432 kts | 194° |
| 2026-05-07 17:14 | 36.11219 | -86.65234 | 38066 ft | 456 kts | 185° |
| 2026-05-07 17:14 | 36.08094 | -86.64121 | 38068 ft | 474 kts | 176° |
| 2026-05-07 17:14 | 36.05017 | -86.62536 | 38075 ft | 486 kts | 171° |
| 2026-05-07 17:15 | 35.98954 | -86.58543 | 38067 ft | 504 kts | 166° |
| 2026-05-07 17:15 | 35.92944 | -86.54126 | 38064 ft | 501 kts | 164° |
| 2026-05-07 17:16 | 35.86926 | -86.49727 | 38056 ft | 502 kts | 165° |
| 2026-05-07 17:16 | 35.80917 | -86.45439 | 38051 ft | 498 kts | 166° |
| 2026-05-07 17:17 | 35.74886 | -86.41209 | 38052 ft | 499 kts | 166° |
| 2026-05-07 17:17 | 35.68899 | -86.37009 | 38049 ft | 500 kts | 166° |
| 2026-05-07 17:18 | 35.62861 | -86.32728 | 38034 ft | 496 kts | 166° |
| 2026-05-07 17:18 | 35.56902 | -86.28489 | 38035 ft | 497 kts | 166° |
| 2026-05-07 17:19 | 35.50885 | -86.24236 | 38028 ft | 495 kts | 166° |
| 2026-05-07 17:19 | 35.44928 | -86.20010 | 38034 ft | 497 kts | 165° |
| 2026-05-07 17:20 | 35.39516 | -86.15550 | 38027 ft | 512 kts | 158° |
| 2026-05-07 17:20 | 35.33857 | -86.10134 | 38023 ft | 517 kts | 155° |
| 2026-05-07 17:21 | 35.28321 | -86.04607 | 38026 ft | 515 kts | 155° |
| 2026-05-07 17:21 | 35.22719 | -85.99079 | 38016 ft | 513 kts | 155° |
| 2026-05-07 17:22 | 35.17114 | -85.93661 | 38018 ft | 513 kts | 156° |
| 2026-05-07 17:22 | 35.11492 | -85.88287 | 38007 ft | 512 kts | 156° |
| 2026-05-07 17:23 | 35.05914 | -85.82963 | 38007 ft | 509 kts | 156° |
| 2026-05-07 17:23 | 35.00337 | -85.77660 | 37999 ft | 511 kts | 156° |
| 2026-05-07 17:24 | 34.94803 | -85.72385 | 37310 ft | 505 kts | 156° |
| 2026-05-07 17:24 | 34.91981 | -85.69717 | 36256 ft | 511 kts | 155° |
| 2026-05-07 17:24 | 34.89172 | -85.67070 | 35394 ft | 514 kts | 156° |
| 2026-05-07 17:25 | 34.86383 | -85.64436 | 34640 ft | 513 kts | 155° |
| 2026-05-07 17:25 | 34.83540 | -85.61749 | 33569 ft | 520 kts | 155° |
| 2026-05-07 17:25 | 34.80714 | -85.59087 | 32786 ft | 520 kts | 155° |
| 2026-05-07 17:25 | 34.77848 | -85.56374 | 32080 ft | 519 kts | 154° |
| 2026-05-07 17:26 | 34.75024 | -85.53694 | 31353 ft | 518 kts | 155° |
| 2026-05-07 17:26 | 34.72197 | -85.51007 | 30616 ft | 517 kts | 155° |
| 2026-05-07 17:26 | 34.69348 | -85.48311 | 29748 ft | 519 kts | 154° |
| 2026-05-07 17:26 | 34.66473 | -85.45606 | 28430 ft | 530 kts | 154° |
| 2026-05-07 17:27 | 34.63557 | -85.42867 | 27842 ft | 523 kts | 154° |
| 2026-05-07 17:27 | 34.60727 | -85.40195 | 27050 ft | 521 kts | 153° |
| 2026-05-07 17:27 | 34.57836 | -85.37472 | 25851 ft | 528 kts | 153° |
| 2026-05-07 17:27 | 34.54921 | -85.34739 | 24900 ft | 527 kts | 153° |
| 2026-05-07 17:28 | 34.52075 | -85.32056 | 24450 ft | 514 kts | 153° |
| 2026-05-07 17:28 | 34.49265 | -85.29401 | 23537 ft | 514 kts | 153° |
| 2026-05-07 17:28 | 34.46483 | -85.26780 | 23114 ft | 501 kts | 153° |
| 2026-05-07 17:28 | 34.43764 | -85.24220 | 22366 ft | 498 kts | 153° |
| 2026-05-07 17:29 | 34.41007 | -85.21636 | 21654 ft | 493 kts | 153° |
| 2026-05-07 17:29 | 34.38328 | -85.19127 | 20917 ft | 490 kts | 153° |
| 2026-05-07 17:29 | 34.35644 | -85.16625 | 20248 ft | 484 kts | 153° |
| 2026-05-07 17:29 | 34.33003 | -85.14163 | 19551 ft | 480 kts | 153° |
| 2026-05-07 17:30 | 34.30389 | -85.11729 | 18854 ft | 476 kts | 152° |
| 2026-05-07 17:30 | 34.27783 | -85.09298 | 18267 ft | 468 kts | 152° |
| 2026-05-07 17:30 | 34.25217 | -85.06911 | 17452 ft | 467 kts | 152° |
| 2026-05-07 17:30 | 34.22645 | -85.04522 | 16859 ft | 460 kts | 151° |
| 2026-05-07 17:31 | 34.20112 | -85.02171 | 16096 ft | 459 kts | 151° |
| 2026-05-07 17:31 | 34.17632 | -84.99867 | 15819 ft | 442 kts | 150° |
| 2026-05-07 17:31 | 34.15238 | -84.97635 | 15546 ft | 429 kts | 151° |
| 2026-05-07 17:31 | 34.12905 | -84.95451 | 15348 ft | 414 kts | 151° |
| 2026-05-07 17:32 | 34.10670 | -84.93339 | 15115 ft | 401 kts | 150° |
| 2026-05-07 17:32 | 34.08527 | -84.91301 | 15008 ft | 386 kts | 150° |
| 2026-05-07 17:32 | 34.06465 | -84.89338 | 14871 ft | 372 kts | 151° |
| 2026-05-07 17:32 | 34.05129 | -84.88068 | 14818 ft | 363 kts | 151° |
| 2026-05-07 17:33 | 34.02546 | -84.85623 | 14686 ft | 345 kts | 152° |
| 2026-05-07 17:33 | 34.00639 | -84.83833 | 14124 ft | 350 kts | 151° |
| 2026-05-07 17:33 | 33.98711 | -84.82037 | 13676 ft | 350 kts | 151° |
| 2026-05-07 17:33 | 33.96806 | -84.80256 | 13316 ft | 347 kts | 150° |
| 2026-05-07 17:34 | 33.94906 | -84.78466 | 12956 ft | 344 kts | 150° |
| 2026-05-07 17:34 | 33.93032 | -84.76695 | 12618 ft | 340 kts | 150° |
| 2026-05-07 17:34 | 33.91180 | -84.74945 | 12220 ft | 339 kts | 149° |
| 2026-05-07 17:34 | 33.89323 | -84.73193 | 12007 ft | 331 kts | 150° |
| 2026-05-07 17:35 | 33.87526 | -84.71500 | 11985 ft | 329 kts | 150° |
| 2026-05-07 17:35 | 33.85678 | -84.69775 | 11997 ft | 336 kts | 150° |
| 2026-05-07 17:35 | 33.83834 | -84.68051 | 11983 ft | 337 kts | 149° |
| 2026-05-07 17:35 | 33.81999 | -84.66325 | 11974 ft | 335 kts | 150° |
| 2026-05-07 17:36 | 33.80170 | -84.64606 | 11985 ft | 335 kts | 150° |
| 2026-05-07 17:36 | 33.78324 | -84.62872 | 11979 ft | 335 kts | 149° |
| 2026-05-07 17:36 | 33.76506 | -84.61124 | 11983 ft | 339 kts | 146° |
| 2026-05-07 17:36 | 33.74858 | -84.59052 | 11979 ft | 343 kts | 131° |
| 2026-05-07 17:37 | 33.73750 | -84.56527 | 11578 ft | 351 kts | 110° |
| 2026-05-07 17:37 | 33.73332 | -84.53639 | 11239 ft | 346 kts | 93° |
| 2026-05-07 17:37 | 33.73292 | -84.50787 | 10715 ft | 343 kts | 90° |
| 2026-05-07 17:37 | 33.73307 | -84.47938 | 10113 ft | 342 kts | 89° |
| 2026-05-07 17:38 | 33.73326 | -84.45102 | 9636 ft | 336 kts | 90° |
| 2026-05-07 17:38 | 33.73332 | -84.42313 | 9130 ft | 332 kts | 90° |
| 2026-05-07 17:38 | 33.73333 | -84.39571 | 8638 ft | 327 kts | 90° |
| 2026-05-07 17:38 | 33.73334 | -84.36842 | 8098 ft | 324 kts | 90° |
| 2026-05-07 17:39 | 33.73334 | -84.34170 | 7607 ft | 320 kts | 90° |
| 2026-05-07 17:39 | 33.73336 | -84.31543 | 7104 ft | 315 kts | 90° |
| 2026-05-07 17:39 | 33.73341 | -84.28928 | 6575 ft | 312 kts | 90° |
| 2026-05-07 17:39 | 33.73344 | -84.26319 | 6040 ft | 309 kts | 90° |
| 2026-05-07 17:40 | 33.73346 | -84.23772 | 5571 ft | 304 kts | 89° |
| 2026-05-07 17:40 | 33.73349 | -84.21287 | 5101 ft | 299 kts | 89° |
| 2026-05-07 17:40 | 33.73355 | -84.18796 | 4966 ft | 290 kts | 89° |
| 2026-05-07 17:40 | 33.73358 | -84.16363 | 4966 ft | 298 kts | 89° |
| 2026-05-07 17:41 | 33.73354 | -84.13851 | 4959 ft | 300 kts | 91° |
| 2026-05-07 17:41 | 33.72950 | -84.11414 | 4945 ft | 291 kts | 114° |
| 2026-05-07 17:41 | 33.71843 | -84.09532 | 4777 ft | 269 kts | 142° |
| 2026-05-07 17:41 | 33.70273 | -84.08532 | 4612 ft | 245 kts | 169° |
| 2026-05-07 17:42 | 33.68661 | -84.08086 | 4418 ft | 232 kts | 174° |
| 2026-05-07 17:42 | 33.67077 | -84.07848 | 4044 ft | 225 kts | 191° |
| 2026-05-07 17:42 | 33.65689 | -84.08493 | 3935 ft | 208 kts | 225° |
| 2026-05-07 17:42 | 33.64935 | -84.09905 | 3947 ft | 202 kts | 258° |
| 2026-05-07 17:43 | 33.64846 | -84.11586 | 3947 ft | 204 kts | 274° |
| 2026-05-07 17:43 | 33.64910 | -84.13271 | 3944 ft | 195 kts | 272° |
| 2026-05-07 17:43 | 33.64922 | -84.14829 | 3955 ft | 177 kts | 271° |
| 2026-05-07 17:43 | 33.64919 | -84.16255 | 3984 ft | 167 kts | 271° |
| 2026-05-07 17:44 | 33.64923 | -84.17667 | 3975 ft | 170 kts | 271° |
| 2026-05-07 17:44 | 33.64928 | -84.19098 | 3974 ft | 171 kts | 271° |
| 2026-05-07 17:44 | 33.64931 | -84.20524 | 3975 ft | 170 kts | 271° |
| 2026-05-07 17:44 | 33.64933 | -84.21945 | 3976 ft | 170 kts | 271° |
| 2026-05-07 17:45 | 33.64936 | -84.23383 | 3849 ft | 174 kts | 271° |
| 2026-05-07 17:45 | 33.64938 | -84.24815 | 3629 ft | 173 kts | 271° |
| 2026-05-07 17:45 | 33.64941 | -84.26253 | 3396 ft | 171 kts | 272° |
| 2026-05-07 17:45 | 33.64944 | -84.27642 | 3184 ft | 164 kts | 272° |
| 2026-05-07 17:46 | 33.64946 | -84.28989 | 2948 ft | 156 kts | 272° |
| 2026-05-07 17:46 | 33.64945 | -84.30232 | 2779 ft | 142 kts | 272° |
| 2026-05-07 17:46 | 33.64947 | -84.31398 | 2549 ft | 136 kts | 272° |
| 2026-05-07 17:46 | 33.64949 | -84.32540 | 2401 ft | 138 kts | 272° |
| 2026-05-07 17:47 | 33.64951 | -84.33715 | 2207 ft | 140 kts | 271° |
| 2026-05-07 17:47 | 33.64952 | -84.34879 | 2021 ft | 140 kts | 271° |
| 2026-05-07 17:47 | 33.64952 | -84.36051 | 1840 ft | 141 kts | 271° |
| 2026-05-07 17:47 | 33.64954 | -84.37202 | 1651 ft | 137 kts | 272° |
| 2026-05-07 17:48 | 33.64953 | -84.38348 | 1475 ft | 137 kts | 272° |
| 2026-05-07 17:48 | 33.64954 | -84.39496 | 1295 ft | 136 kts | 272° |
| 2026-05-07 17:48 | 33.64955 | -84.40620 | 1125 ft | 135 kts | 272° |
| 2026-05-07 17:48 | 33.64952 | -84.41746 | 1017 ft | 131 kts | 272° |
| 2026-05-07 17:49 | 33.64955 | -84.42626 | 1016 ft | 72 kts | 271° |
| 2026-05-07 17:49 | 33.64947 | -84.43039 | 1021 ft | 33 kts | 264° |
| 2026-05-07 17:49 | 33.64907 | -84.43205 | 1023 ft | 18 kts | 248° |
| 2026-05-07 17:49 | 33.64865 | -84.43317 | 1023 ft | 11 kts | 245° |
| 2026-05-07 17:50 | 33.64856 | -84.43355 | 1023 ft | 0 kts | 263° |
| 2026-05-07 17:50 | 33.64854 | -84.43369 | 1024 ft | 4 kts | 263° |
| 2026-05-07 17:50 | 33.64844 | -84.43457 | 1024 ft | 10 kts | 262° |
| 2026-05-07 17:50 | 33.64814 | -84.43527 | 1025 ft | 8 kts | 220° |
| 2026-05-07 17:51 | 33.64789 | -84.43549 | 1026 ft | 0 kts | 215° |
| 2026-05-07 17:51 | 33.64784 | -84.43553 | 1026 ft | 1 kts | 215° |
| 2026-05-07 17:51 | 33.64780 | -84.43556 | 1026 ft | 3 kts | 215° |
| 2026-05-07 17:51 | 33.64723 | -84.43598 | 1025 ft | 11 kts | 212° |
| 2026-05-07 17:52 | 33.64659 | -84.43645 | 1026 ft | 9 kts | 210° |
| 2026-05-07 17:52 | 33.64597 | -84.43687 | 1023 ft | 12 kts | 211° |
| 2026-05-07 17:52 | 33.64504 | -84.43716 | 1020 ft | 13 kts | 184° |
| 2026-05-07 17:52 | 33.64427 | -84.43721 | 1024 ft | 9 kts | 179° |
| 2026-05-07 17:53 | 33.64361 | -84.43721 | 1024 ft | 9 kts | 180° |
| 2026-05-07 17:53 | 33.64295 | -84.43722 | 1024 ft | 9 kts | 180° |
| 2026-05-07 17:53 | 33.64212 | -84.43722 | 1024 ft | 13 kts | 180° |
| 2026-05-07 17:53 | 33.64117 | -84.43720 | 1024 ft | 13 kts | 179° |
| 2026-05-07 17:54 | 33.64027 | -84.43722 | 1023 ft | 12 kts | 181° |
| 2026-05-07 17:54 | 33.63944 | -84.43722 | 1024 ft | 11 kts | 180° |
| 2026-05-07 17:54 | 33.63871 | -84.43722 | 1023 ft | 9 kts | 180° |
| 2026-05-07 17:54 | 33.63851 | -84.43722 | 1024 ft | 1 kts | 180° |
| 2026-05-07 17:55 | 33.63842 | -84.43716 | 1023 ft | 2 kts | 140° |
| 2026-05-07 17:55 | 33.63834 | -84.43675 | 1024 ft | 4 kts | 91° |
| 2026-05-07 17:55 | 33.63834 | -84.43663 | 1023 ft | 0 kts | 91° |
| 2026-05-07 17:55 | 33.63834 | -84.43653 | 1023 ft | 0 kts | 91° |
| 2026-05-07 17:56 | 33.63834 | -84.43650 | 1023 ft | 1 kts | 91° |
| 2026-05-07 17:56 | 33.63834 | -84.43649 | 1023 ft | 0 kts | 91° |